createdAt,value
2023-03-29T00:02:30.386Z,4.68
2023-03-29T00:05:01.846Z,7.15
2023-03-29T00:07:30.107Z,6.97
2023-03-29T00:09:56.861Z,4.57
2023-03-29T00:12:23.560Z,4.82
2023-03-29T00:14:50.328Z,3.83
2023-03-29T00:17:17.011Z,4.97
2023-03-29T00:19:45.364Z,5.57
2023-03-29T00:22:12.154Z,6.97
2023-03-29T00:24:38.964Z,5.13
2023-03-29T00:27:05.732Z,3.90
2023-03-29T00:29:32.882Z,4.70
2023-03-29T00:31:59.809Z,5.20
2023-03-29T00:34:30.963Z,6.13
2023-03-29T00:36:58.757Z,8.18
2023-03-29T00:39:26.440Z,5.43
2023-03-29T00:41:53.348Z,7.07
2023-03-29T00:44:57.517Z,5.95
2023-03-29T00:47:27.394Z,5.72
2023-03-29T00:49:55.281Z,6.15
2023-03-29T00:52:22.635Z,5.38
2023-03-29T00:54:52.986Z,5.18
2023-03-29T00:57:20.850Z,5.38
2023-03-29T00:59:49.882Z,7.18
2023-03-29T01:02:22.047Z,4.90
2023-03-29T01:04:59.249Z,5.25
2023-03-29T01:07:40.325Z,7.80
2023-03-29T01:10:19.071Z,5.20
2023-03-29T01:13:02.453Z,5.85
2023-03-29T01:15:29.781Z,5.35
2023-03-29T01:17:58.363Z,5.85
2023-03-29T01:20:50.898Z,6.18
2023-03-29T01:23:34.203Z,5.03
2023-03-29T01:26:31.166Z,5.38
2023-03-29T01:29:03.317Z,7.05
2023-03-29T01:31:38.216Z,7.30
2023-03-29T01:34:14.836Z,6.45
2023-03-29T01:37:10.351Z,9.57
2023-03-29T01:39:37.135Z,6.73
2023-03-29T01:42:16.066Z,7.00
2023-03-29T01:44:49.840Z,6.70
2023-03-29T01:47:44.187Z,7.13
2023-03-29T01:50:28.972Z,7.43
2023-03-29T01:53:30.909Z,11.80
2023-03-29T01:56:04.493Z,10.30
2023-03-29T01:58:36.562Z,10.20
2023-03-29T02:01:09.838Z,10.98
2023-03-29T02:03:42.135Z,12.10
2023-03-29T02:06:11.891Z,10.52
2023-03-29T02:08:41.434Z,10.30
2023-03-29T02:11:08.867Z,10.80
2023-03-29T02:13:36.393Z,15.55
2023-03-29T02:16:13.547Z,15.48
2023-03-29T02:18:42.717Z,12.00
2023-03-29T02:21:11.547Z,14.30
2023-03-29T02:23:45.402Z,13.57
2023-03-29T02:26:14.352Z,14.82
2023-03-29T02:28:42.016Z,16.25
2023-03-29T02:31:23.721Z,13.60
2023-03-29T02:34:07.710Z,15.77
2023-03-29T02:36:43.976Z,21.02
2023-03-29T02:39:15.626Z,17.58
2023-03-29T02:41:45.806Z,16.95
2023-03-29T02:44:16.914Z,14.75
2023-03-29T02:46:44.348Z,17.48
2023-03-29T02:49:13.049Z,15.85
2023-03-29T02:51:39.739Z,15.32
2023-03-29T02:54:13.147Z,16.63
2023-03-29T02:56:44.849Z,18.10
2023-03-29T02:59:12.530Z,13.43
2023-03-29T03:01:44.711Z,14.65
2023-03-29T03:04:12.320Z,14.05
2023-03-29T03:06:39.403Z,16.65
2023-03-29T03:09:06.765Z,15.55
2023-03-29T03:11:34.291Z,14.48
2023-03-29T03:14:01.067Z,15.13
2023-03-29T03:16:28.026Z,13.75
2023-03-29T03:18:55.632Z,14.32
2023-03-29T03:21:23.036Z,13.93
2023-03-29T03:23:50.030Z,17.70
2023-03-29T03:26:18.204Z,17.48
2023-03-29T03:28:48.273Z,13.10
2023-03-29T03:31:15.076Z,16.88
2023-03-29T03:33:41.938Z,14.20
2023-03-29T03:36:10.760Z,16.98
2023-03-29T03:38:38.458Z,13.75
2023-03-29T03:41:07.000Z,14.13
2023-03-29T03:43:34.659Z,13.32
2023-03-29T03:46:01.904Z,15.68
2023-03-29T03:48:28.687Z,14.13
2023-03-29T03:50:58.089Z,13.18
2023-03-29T03:53:26.235Z,12.90
2023-03-29T03:55:55.936Z,13.13
2023-03-29T03:58:22.993Z,13.30
2023-03-29T04:00:50.927Z,15.70
2023-03-29T04:03:18.745Z,15.07
2023-03-29T04:05:46.729Z,16.77
2023-03-29T04:08:14.868Z,13.93
2023-03-29T04:10:42.033Z,19.48
2023-03-29T04:13:08.723Z,13.75
2023-03-29T04:15:38.701Z,17.70
2023-03-29T04:18:08.896Z,14.48
2023-03-29T04:20:35.928Z,17.05
2023-03-29T04:23:02.597Z,16.58
2023-03-29T04:25:29.703Z,17.60
2023-03-29T04:27:56.697Z,16.38
2023-03-29T04:30:23.647Z,13.40
2023-03-29T04:32:50.463Z,12.80
2023-03-29T04:35:17.870Z,14.05
2023-03-29T04:37:44.591Z,20.55
2023-03-29T04:40:14.961Z,12.38
2023-03-29T04:42:45.836Z,12.55
2023-03-29T04:45:17.926Z,13.82
2023-03-29T04:47:45.704Z,14.32
2023-03-29T04:50:13.759Z,14.85
2023-03-29T04:52:40.882Z,12.95
2023-03-29T04:55:08.527Z,17.42
2023-03-29T04:57:35.261Z,14.52
2023-03-29T05:00:02.179Z,13.77
2023-03-29T05:02:32.209Z,13.75
2023-03-29T05:04:59.378Z,15.20
2023-03-29T05:07:26.018Z,16.08
2023-03-29T05:09:53.375Z,14.30
2023-03-29T05:12:20.180Z,14.93
2023-03-29T05:14:47.194Z,16.45
2023-03-29T05:17:14.193Z,15.85
2023-03-29T05:19:41.345Z,14.57
2023-03-29T05:22:08.895Z,14.05
2023-03-29T05:24:36.136Z,14.80
2023-03-29T05:27:03.627Z,14.73
2023-03-29T05:29:32.717Z,14.45
2023-03-29T05:31:59.673Z,14.43
2023-03-29T05:34:26.501Z,14.77
2023-03-29T05:36:53.248Z,15.25
2023-03-29T05:39:19.877Z,18.85
2023-03-29T05:41:46.586Z,16.60
2023-03-29T05:44:13.287Z,16.85
2023-03-29T05:46:39.919Z,16.00
2023-03-29T05:49:06.814Z,16.83
2023-03-29T05:51:33.585Z,18.60
2023-03-29T05:54:00.662Z,15.60
2023-03-29T05:56:27.837Z,19.35
2023-03-29T05:58:56.966Z,16.98
2023-03-29T06:01:24.539Z,16.35
2023-03-29T06:03:51.957Z,16.15
2023-03-29T06:06:18.726Z,18.35
2023-03-29T06:08:46.460Z,19.33
2023-03-29T06:11:13.502Z,16.83
2023-03-29T06:13:42.020Z,17.38
2023-03-29T06:16:10.542Z,17.85
2023-03-29T06:18:40.117Z,23.13
2023-03-29T06:21:09.266Z,17.33
2023-03-29T06:23:36.854Z,16.75
2023-03-29T06:26:04.144Z,17.35
2023-03-29T06:28:30.852Z,15.77
2023-03-29T06:31:02.914Z,16.17
2023-03-29T06:33:32.242Z,19.30
2023-03-29T06:35:59.025Z,18.10
2023-03-29T06:38:28.369Z,15.90
2023-03-29T06:41:06.626Z,21.05
2023-03-29T06:43:34.666Z,16.13
2023-03-29T06:46:01.878Z,17.25
2023-03-29T06:48:29.330Z,16.02
2023-03-29T06:50:56.445Z,18.67
2023-03-29T06:53:23.295Z,17.75
2023-03-29T06:55:51.914Z,16.25
2023-03-29T06:58:18.642Z,16.20
2023-03-29T07:00:45.822Z,17.30
2023-03-29T07:03:19.801Z,15.38
2023-03-29T07:05:47.535Z,13.70
2023-03-29T07:08:16.316Z,15.32
2023-03-29T07:10:45.639Z,13.32
2023-03-29T07:13:13.219Z,14.57
2023-03-29T07:15:41.452Z,17.35
2023-03-29T07:18:14.940Z,12.07
2023-03-29T07:20:42.452Z,12.23
2023-03-29T07:23:09.985Z,12.68
2023-03-29T07:25:37.320Z,16.33
2023-03-29T07:28:04.653Z,15.15
2023-03-29T07:30:32.504Z,13.10
2023-03-29T07:33:00.397Z,17.52
2023-03-29T07:35:28.257Z,11.38
2023-03-29T07:37:55.678Z,12.68
2023-03-29T07:40:26.160Z,16.40
2023-03-29T07:42:57.047Z,12.02
2023-03-29T07:45:27.449Z,11.68
2023-03-29T07:47:57.812Z,11.30
2023-03-29T07:50:25.732Z,12.93
2023-03-29T07:52:52.702Z,16.52
2023-03-29T07:55:19.999Z,11.30
2023-03-29T07:57:46.692Z,12.43
2023-03-29T08:00:17.385Z,12.02
2023-03-29T08:02:45.556Z,11.30
2023-03-29T08:05:15.440Z,12.35
2023-03-29T08:07:46.876Z,10.60
2023-03-29T08:10:16.366Z,9.88
2023-03-29T08:12:43.870Z,11.45
2023-03-29T08:15:11.187Z,10.30
2023-03-29T08:17:38.140Z,11.27
2023-03-29T08:20:06.057Z,11.15
2023-03-29T08:22:33.982Z,10.05
2023-03-29T08:25:00.708Z,13.20
2023-03-29T08:27:27.551Z,10.55
2023-03-29T08:29:54.503Z,10.45
2023-03-29T08:32:21.422Z,11.15
2023-03-29T08:34:48.127Z,10.18
2023-03-29T08:37:15.019Z,10.10
2023-03-29T08:39:41.799Z,13.20
2023-03-29T08:42:23.777Z,10.20
2023-03-29T08:44:53.110Z,10.82
2023-03-29T08:47:37.137Z,10.90
2023-03-29T08:50:04.802Z,9.75
2023-03-29T08:52:38.006Z,10.30
2023-03-29T08:55:19.366Z,9.65
2023-03-29T08:57:48.665Z,13.10
2023-03-29T09:00:33.713Z,8.90
2023-03-29T09:03:02.398Z,10.30
2023-03-29T09:05:44.395Z,10.48
2023-03-29T09:08:17.410Z,11.88
2023-03-29T09:10:48.645Z,11.65
2023-03-29T09:13:21.205Z,12.48
2023-03-29T09:15:56.919Z,12.77
2023-03-29T09:18:38.387Z,10.48
2023-03-29T09:21:16.490Z,10.82
2023-03-29T09:24:15.687Z,9.27
2023-03-29T09:26:49.596Z,13.40
2023-03-29T09:29:46.243Z,7.97
2023-03-29T09:32:29.224Z,10.43
2023-03-29T09:35:14.173Z,8.43
2023-03-29T09:37:41.567Z,11.40
2023-03-29T09:40:17.158Z,8.38
2023-03-29T09:45:11.578Z,8.55
2023-03-29T09:48:02.670Z,12.65
2023-03-29T09:50:40.810Z,9.07
2023-03-29T09:53:08.659Z,10.13
2023-03-29T09:55:37.116Z,7.97
2023-03-29T09:58:23.312Z,12.93
2023-03-29T10:03:25.187Z,16.45
2023-03-29T10:05:54.478Z,12.40
2023-03-29T10:08:28.193Z,9.07
2023-03-29T10:10:57.754Z,9.07
2023-03-29T10:13:33.637Z,8.75
2023-03-29T10:16:07.862Z,12.85
2023-03-29T10:18:40.647Z,15.38
2023-03-29T10:21:12.035Z,9.43
2023-03-29T10:23:38.707Z,9.88
2023-03-29T10:26:18.083Z,11.38
2023-03-29T10:28:45.132Z,11.68
2023-03-29T10:31:18.395Z,14.50
2023-03-29T10:33:51.932Z,11.45
2023-03-29T10:36:19.301Z,16.92
2023-03-29T10:38:47.495Z,10.45
2023-03-29T10:41:15.815Z,13.50
2023-03-29T10:43:49.401Z,14.25
2023-03-29T10:46:27.968Z,12.05
2023-03-29T10:49:10.186Z,11.68
2023-03-29T10:51:37.429Z,16.65
2023-03-29T10:54:05.273Z,11.43
2023-03-29T10:56:45.859Z,11.02
2023-03-29T10:59:47.401Z,10.13
2023-03-29T11:02:14.248Z,10.70
2023-03-29T11:05:12.448Z,11.48
2023-03-29T11:07:56.109Z,12.63
2023-03-29T11:11:02.466Z,11.65
2023-03-29T11:13:49.445Z,10.57
2023-03-29T11:16:49.682Z,10.68
2023-03-29T11:19:31.275Z,10.50
2023-03-29T11:22:39.310Z,10.50
2023-03-29T11:25:15.536Z,14.35
2023-03-29T11:27:48.910Z,10.05
2023-03-29T11:30:57.178Z,9.50
2023-03-29T11:33:27.091Z,9.13
2023-03-29T11:36:17.633Z,11.80
2023-03-29T11:39:16.532Z,10.00
2023-03-29T11:41:48.594Z,10.27
2023-03-29T11:44:34.079Z,8.85
2023-03-29T11:47:09.792Z,11.15
2023-03-29T11:49:53.008Z,12.88
2023-03-29T11:52:34.781Z,9.52
2023-03-29T11:55:23.667Z,11.02
2023-03-29T11:58:09.598Z,8.82
2023-03-29T12:00:41.629Z,10.15
2023-03-29T12:03:46.343Z,8.63
2023-03-29T12:06:47.558Z,13.50
2023-03-29T12:09:34.604Z,8.65
2023-03-29T12:12:10.140Z,9.27
2023-03-29T12:17:18.402Z,11.38
2023-03-29T12:20:12.306Z,10.57
2023-03-29T12:22:40.089Z,14.70
2023-03-29T12:25:11.101Z,12.07
2023-03-29T12:28:10.994Z,9.18
2023-03-29T12:31:05.316Z,11.45
2023-03-29T12:34:07.711Z,8.30
2023-03-29T12:37:08.123Z,9.77
2023-03-29T12:39:36.871Z,8.35
2023-03-29T12:42:14.752Z,9.65
2023-03-29T12:44:46.175Z,8.90
2023-03-29T12:47:21.362Z,13.30
2023-03-29T12:49:56.608Z,15.77
2023-03-29T12:52:34.876Z,10.57
2023-03-29T12:55:04.886Z,9.02
2023-03-29T12:57:59.998Z,8.70
2023-03-29T13:00:50.322Z,10.98
2023-03-29T13:03:53.303Z,11.73
2023-03-29T13:06:53.631Z,11.07
2023-03-29T13:09:28.051Z,12.02
2023-03-29T13:12:11.128Z,16.75
2023-03-29T13:14:42.761Z,17.52
2023-03-29T13:17:48.152Z,10.98
2023-03-29T13:20:23.705Z,11.98
2023-03-29T13:25:38.436Z,15.73
2023-03-29T13:28:11.407Z,11.25
2023-03-29T13:31:05.965Z,13.43
2023-03-29T13:33:48.144Z,12.43
2023-03-29T13:36:42.172Z,10.18
2023-03-29T13:39:19.267Z,13.20
2023-03-29T13:41:49.284Z,9.15
2023-03-29T13:44:22.161Z,13.05
2023-03-29T13:47:00.916Z,9.98
2023-03-29T13:49:31.847Z,10.95
2023-03-29T13:52:28.520Z,12.70
2023-03-29T13:55:00.593Z,11.50
2023-03-29T13:57:42.861Z,9.88
2023-03-29T14:00:36.932Z,10.60
2023-03-29T14:03:12.131Z,11.00
2023-03-29T14:05:42.386Z,12.88
2023-03-29T14:08:16.629Z,11.40
2023-03-29T14:10:45.336Z,11.82
2023-03-29T14:13:14.814Z,16.17
2023-03-29T14:15:45.685Z,12.40
2023-03-29T14:18:16.810Z,12.70
2023-03-29T14:20:46.400Z,11.05
2023-03-29T14:23:20.280Z,13.45
2023-03-29T14:25:47.430Z,10.48
2023-03-29T14:28:21.033Z,13.38
2023-03-29T14:30:48.071Z,14.50
2023-03-29T14:33:14.783Z,10.57
2023-03-29T14:35:41.754Z,11.43
2023-03-29T14:38:12.778Z,13.02
2023-03-29T14:40:39.821Z,13.38
2023-03-29T14:43:08.216Z,11.35
2023-03-29T14:45:35.298Z,11.20
2023-03-29T14:48:02.519Z,10.98
2023-03-29T14:50:30.972Z,11.25
2023-03-29T14:53:00.481Z,9.82
2023-03-29T14:55:27.622Z,11.88
2023-03-29T14:57:55.392Z,11.73
2023-03-29T15:00:30.078Z,11.80
2023-03-29T15:02:59.842Z,14.07
2023-03-29T15:05:40.103Z,12.15
2023-03-29T15:08:13.167Z,12.88
2023-03-29T15:10:42.987Z,10.05
2023-03-29T15:13:21.835Z,9.98
2023-03-29T15:15:55.735Z,8.32
2023-03-29T15:18:30.111Z,9.98
2023-03-29T15:20:56.991Z,11.23
2023-03-29T15:23:25.963Z,9.50
2023-03-29T15:26:07.324Z,8.90
2023-03-29T15:28:35.734Z,8.82
2023-03-29T15:31:18.163Z,10.52
2023-03-29T15:33:45.569Z,9.77
2023-03-29T15:36:14.044Z,10.20
2023-03-29T15:38:44.687Z,9.52
2023-03-29T15:41:13.326Z,10.30
2023-03-29T15:43:41.161Z,9.40
2023-03-29T15:46:08.240Z,10.52
2023-03-29T15:48:35.143Z,9.65
2023-03-29T15:51:04.800Z,11.18
2023-03-29T15:53:33.022Z,10.55
2023-03-29T15:56:02.495Z,9.75
2023-03-29T15:58:32.400Z,10.05
2023-03-29T16:01:23.653Z,10.25
2023-03-29T16:03:51.034Z,11.30
2023-03-29T16:06:18.326Z,10.43
2023-03-29T16:08:45.152Z,10.25
2023-03-29T16:11:12.039Z,10.90
2023-03-29T16:13:38.775Z,14.63
2023-03-29T16:16:06.468Z,11.98
2023-03-29T16:18:33.677Z,10.13
2023-03-29T16:20:27.563Z,16.38
2023-03-29T16:21:00.693Z,10.13
2023-03-29T16:23:27.389Z,9.98
2023-03-29T16:25:54.145Z,11.80
2023-03-29T16:26:44.522Z,12.55
2023-03-29T16:28:21.669Z,9.90
2023-03-29T16:30:01.090Z,12.00
2023-03-29T16:30:48.802Z,11.20
2023-03-29T16:33:15.946Z,11.48
2023-03-29T16:35:42.990Z,10.85
2023-03-29T16:38:09.781Z,9.98
2023-03-29T16:40:36.979Z,13.32
2023-03-29T16:40:51.330Z,13.02
2023-03-29T16:42:15.744Z,14.48
2023-03-29T16:43:04.484Z,13.82
2023-03-29T16:45:31.605Z,10.52
2023-03-29T16:47:58.615Z,12.98
2023-03-29T16:50:25.372Z,11.40
2023-03-29T16:52:52.567Z,12.60
2023-03-29T16:55:19.448Z,13.00
2023-03-29T16:57:37.038Z,16.95
2023-03-29T16:57:47.478Z,12.88
2023-03-29T17:00:16.908Z,15.80
2023-03-29T17:01:31.840Z,16.10
2023-03-29T17:02:44.091Z,14.63
2023-03-29T17:05:12.340Z,13.50
2023-03-29T17:06:21.017Z,18.15
2023-03-29T17:07:39.493Z,13.90
2023-03-29T17:08:48.290Z,16.50
2023-03-29T17:10:11.004Z,13.43
2023-03-29T17:11:16.032Z,16.73
2023-03-29T17:12:37.804Z,15.35
2023-03-29T17:13:43.544Z,17.08
2023-03-29T17:15:07.492Z,14.48
2023-03-29T17:16:11.075Z,17.55
2023-03-29T17:17:34.741Z,13.30
2023-03-29T17:18:38.378Z,15.77
2023-03-29T17:20:01.436Z,14.43
2023-03-29T17:21:05.925Z,17.42
2023-03-29T17:22:28.073Z,14.57
2023-03-29T17:23:33.174Z,16.00
2023-03-29T17:24:54.748Z,14.23
2023-03-29T17:26:00.978Z,18.05
2023-03-29T17:27:21.493Z,15.05
2023-03-29T17:28:28.436Z,18.20
2023-03-29T17:29:48.278Z,16.30
2023-03-29T17:30:55.867Z,20.30
2023-03-29T17:32:14.902Z,14.07
2023-03-29T17:33:26.378Z,17.85
2023-03-29T17:34:41.602Z,16.67
2023-03-29T17:35:53.894Z,20.95
2023-03-29T17:37:09.570Z,17.10
2023-03-29T17:39:37.786Z,15.73
2023-03-29T17:42:05.568Z,16.45
2023-03-29T17:44:33.299Z,19.27
2023-03-29T17:47:00.992Z,18.10
2023-03-29T17:49:28.160Z,16.55
2023-03-29T17:51:55.120Z,15.65
2023-03-29T17:54:22.068Z,17.50
2023-03-29T17:54:35.109Z,20.50
2023-03-29T17:56:48.922Z,17.48
2023-03-29T17:57:04.617Z,19.40
2023-03-29T17:59:15.883Z,17.58
2023-03-29T17:59:34.172Z,21.25
2023-03-29T18:01:42.937Z,17.02
2023-03-29T18:02:05.581Z,20.23
2023-03-29T18:04:09.650Z,16.70
2023-03-29T18:04:33.956Z,24.80
2023-03-29T18:06:36.406Z,15.85
2023-03-29T18:07:01.725Z,21.98
2023-03-29T18:09:03.205Z,16.38
2023-03-29T18:09:36.775Z,23.58
2023-03-29T18:11:30.156Z,17.52
2023-03-29T18:13:59.538Z,16.92
2023-03-29T18:16:26.691Z,16.88
2023-03-29T18:18:53.397Z,18.17
2023-03-29T18:21:20.256Z,19.05
2023-03-29T18:23:48.345Z,18.52
2023-03-29T18:26:16.746Z,17.02
2023-03-29T18:28:48.792Z,17.25
2023-03-29T18:31:15.976Z,18.58
2023-03-29T18:33:42.842Z,18.35
2023-03-29T18:35:33.210Z,28.67
2023-03-29T18:36:12.992Z,16.80
2023-03-29T18:38:00.690Z,21.77
2023-03-29T18:38:42.908Z,17.48
2023-03-29T18:40:28.302Z,23.52
2023-03-29T18:41:12.048Z,18.27
2023-03-29T18:42:55.744Z,23.25
2023-03-29T18:43:39.741Z,16.95
2023-03-29T18:45:23.067Z,22.65
2023-03-29T18:46:08.066Z,15.48
2023-03-29T18:47:50.645Z,20.13
2023-03-29T18:48:38.834Z,17.60
2023-03-29T18:50:18.090Z,19.48
2023-03-29T18:51:07.835Z,16.23
2023-03-29T18:52:47.775Z,23.92
2023-03-29T18:53:35.976Z,15.98
2023-03-29T18:55:15.411Z,22.50
2023-03-29T18:56:04.295Z,17.50
2023-03-29T18:57:42.771Z,22.83
2023-03-29T18:58:31.306Z,16.20
2023-03-29T19:00:14.327Z,21.65
2023-03-29T19:01:05.452Z,16.77
2023-03-29T19:02:42.009Z,25.73
2023-03-29T19:03:34.556Z,16.85
2023-03-29T19:06:02.744Z,17.58
2023-03-29T19:08:29.775Z,16.80
2023-03-29T19:11:05.458Z,16.27
2023-03-29T19:13:32.285Z,16.92
2023-03-29T19:15:59.262Z,16.17
2023-03-29T19:18:26.071Z,17.73
2023-03-29T19:20:54.173Z,20.42
2023-03-29T19:23:22.465Z,18.70
2023-03-29T19:25:57.375Z,21.35
2023-03-29T19:28:25.149Z,22.27
2023-03-29T19:30:52.083Z,27.27
2023-03-29T19:33:18.900Z,26.95
2023-03-29T19:33:19.827Z,34.47
2023-03-29T19:35:46.618Z,37.05
2023-03-29T19:38:13.316Z,30.17
2023-03-29T19:40:40.192Z,26.83
2023-03-29T19:43:06.904Z,20.80
2023-03-29T19:45:33.629Z,18.75
2023-03-29T19:48:03.460Z,21.55
2023-03-29T19:50:31.609Z,19.52
2023-03-29T19:52:58.501Z,21.05
2023-03-29T19:55:26.432Z,21.58
2023-03-29T19:57:53.080Z,18.83
2023-03-29T20:00:11.506Z,25.55
2023-03-29T20:00:24.289Z,21.10
2023-03-29T20:02:52.208Z,22.50
2023-03-29T20:05:18.984Z,23.17
2023-03-29T20:07:45.627Z,21.27
2023-03-29T20:10:12.361Z,21.90
2023-03-29T20:12:17.143Z,22.98
2023-03-29T20:12:39.094Z,21.52
2023-03-29T20:15:06.530Z,22.33
2023-03-29T20:17:35.334Z,25.25
2023-03-29T20:17:59.867Z,27.83
2023-03-29T20:20:08.153Z,19.92
2023-03-29T20:20:31.996Z,31.85
2023-03-29T20:22:34.852Z,20.17
2023-03-29T20:25:01.570Z,20.27
2023-03-29T20:27:29.385Z,19.45
2023-03-29T20:29:56.173Z,20.77
2023-03-29T20:32:23.144Z,20.98
2023-03-29T20:34:49.809Z,19.98
2023-03-29T20:36:06.420Z,29.30
2023-03-29T20:37:16.437Z,24.27
2023-03-29T20:39:43.142Z,23.02
2023-03-29T20:42:09.883Z,23.05
2023-03-29T20:44:36.674Z,26.75
2023-03-29T20:47:04.847Z,22.70
2023-03-29T20:49:39.211Z,22.20
2023-03-29T20:51:28.046Z,27.83
2023-03-29T20:52:08.383Z,24.13
2023-03-29T20:54:02.195Z,33.25
2023-03-29T20:54:37.015Z,24.15
2023-03-29T20:56:30.546Z,31.70
2023-03-29T20:57:05.039Z,23.83
2023-03-29T20:58:58.987Z,33.28
2023-03-29T20:59:31.862Z,25.00
2023-03-29T21:01:27.910Z,30.95
2023-03-29T21:02:00.084Z,23.77
2023-03-29T21:03:55.286Z,33.53
2023-03-29T21:04:28.225Z,24.60
2023-03-29T21:06:24.444Z,37.42
2023-03-29T21:06:56.103Z,23.83
2023-03-29T21:08:52.553Z,34.35
2023-03-29T21:09:25.487Z,26.10
2023-03-29T21:11:21.035Z,35.72
2023-03-29T21:11:52.866Z,28.35
2023-03-29T21:13:48.402Z,32.45
2023-03-29T21:14:21.038Z,28.02
2023-03-29T21:16:16.009Z,32.22
2023-03-29T21:16:49.238Z,29.67
2023-03-29T21:18:43.781Z,32.75
2023-03-29T21:19:16.684Z,28.05
2023-03-29T21:21:12.252Z,38.08
2023-03-29T21:21:44.754Z,27.20
2023-03-29T21:23:39.520Z,38.80
2023-03-29T21:24:13.747Z,26.30
2023-03-29T21:26:07.951Z,32.35
2023-03-29T21:26:41.447Z,25.67
2023-03-29T21:28:35.511Z,35.72
2023-03-29T21:29:08.122Z,26.95
2023-03-29T21:31:06.825Z,35.63
2023-03-29T21:31:34.966Z,27.05
2023-03-29T21:33:34.923Z,35.40
2023-03-29T21:34:01.782Z,27.38
2023-03-29T21:36:02.658Z,36.65
2023-03-29T21:36:28.491Z,31.20
2023-03-29T21:38:30.014Z,36.17
2023-03-29T21:38:55.295Z,28.50
2023-03-29T21:40:58.227Z,36.90
2023-03-29T21:41:22.014Z,29.52
2023-03-29T21:43:25.485Z,37.58
2023-03-29T21:43:50.021Z,27.48
2023-03-29T21:45:52.698Z,42.25
2023-03-29T21:46:16.726Z,28.15
2023-03-29T21:48:19.924Z,37.08
2023-03-29T21:48:43.343Z,27.77
2023-03-29T21:50:51.188Z,43.40
2023-03-29T21:51:10.026Z,27.00
2023-03-29T21:53:18.505Z,39.50
2023-03-29T21:53:36.995Z,28.17
2023-03-29T21:55:45.742Z,40.92
2023-03-29T21:56:04.195Z,28.23
2023-03-29T21:58:12.971Z,37.00
2023-03-29T21:58:31.064Z,29.00
2023-03-29T22:00:40.580Z,38.00
2023-03-29T22:00:57.792Z,27.45
2023-03-29T22:03:07.977Z,39.80
2023-03-29T22:03:24.671Z,27.10
2023-03-29T22:05:35.552Z,37.42
2023-03-29T22:05:59.741Z,29.27
2023-03-29T22:08:04.243Z,33.63
2023-03-29T22:08:26.506Z,28.30
2023-03-29T22:10:32.990Z,31.90
2023-03-29T22:10:58.015Z,28.27
2023-03-29T22:13:01.112Z,34.85
2023-03-29T22:13:26.608Z,27.77
2023-03-29T22:15:29.683Z,32.92
2023-03-29T22:15:58.988Z,27.60
2023-03-29T22:17:59.299Z,31.80
2023-03-29T22:18:27.933Z,26.13
2023-03-29T22:20:27.616Z,36.70
2023-03-29T22:20:54.689Z,29.20
2023-03-29T22:22:55.644Z,31.98
2023-03-29T22:23:21.347Z,26.52
2023-03-29T22:25:24.312Z,36.78
2023-03-29T22:25:48.272Z,26.85
2023-03-29T22:27:51.540Z,32.53
2023-03-29T22:28:14.950Z,26.90
2023-03-29T22:30:19.054Z,36.85
2023-03-29T22:30:41.892Z,25.48
2023-03-29T22:32:46.358Z,31.58
2023-03-29T22:33:08.614Z,27.25
2023-03-29T22:35:13.775Z,30.30
2023-03-29T22:35:36.262Z,23.98
2023-03-29T22:37:42.150Z,31.73
2023-03-29T22:38:02.962Z,23.30
2023-03-29T22:40:10.679Z,32.03
2023-03-29T22:40:33.094Z,22.17
2023-03-29T22:42:38.035Z,29.92
2023-03-29T22:43:00.258Z,22.75
2023-03-29T22:45:06.544Z,26.67
2023-03-29T22:45:27.378Z,22.63
2023-03-29T22:47:35.380Z,28.60
2023-03-29T22:47:54.247Z,24.02
2023-03-29T22:50:02.621Z,29.05
2023-03-29T22:50:21.065Z,22.00
2023-03-29T22:52:29.879Z,30.40
2023-03-29T22:52:47.711Z,24.63
2023-03-29T22:54:57.181Z,30.30
2023-03-29T22:55:14.541Z,22.25
2023-03-29T22:57:24.511Z,31.17
2023-03-29T22:57:41.364Z,22.08
2023-03-29T22:59:51.833Z,30.15
2023-03-29T23:00:10.352Z,20.27
2023-03-29T23:02:19.093Z,30.92
2023-03-29T23:02:37.319Z,21.13
2023-03-29T23:04:47.045Z,34.45
2023-03-29T23:05:04.154Z,21.90
2023-03-29T23:07:14.308Z,26.42
2023-03-29T23:07:30.893Z,22.60
2023-03-29T23:09:41.536Z,28.45
2023-03-29T23:09:57.623Z,22.13
2023-03-29T23:12:09.732Z,26.13
2023-03-29T23:12:24.358Z,22.20
2023-03-29T23:14:37.618Z,31.52
2023-03-29T23:14:52.869Z,21.88
2023-03-29T23:17:04.858Z,28.48
2023-03-29T23:17:19.457Z,23.35
2023-03-29T23:19:32.206Z,32.83
2023-03-29T23:19:46.520Z,21.42
2023-03-29T23:21:59.416Z,26.75
2023-03-29T23:22:13.573Z,22.33
2023-03-29T23:24:26.740Z,27.38
2023-03-29T23:24:40.482Z,22.10
2023-03-29T23:26:55.275Z,29.52
2023-03-29T23:27:07.654Z,22.08
2023-03-29T23:29:22.849Z,31.08
2023-03-29T23:29:34.502Z,21.77
2023-03-29T23:31:50.152Z,28.35
2023-03-29T23:32:01.260Z,22.25
2023-03-29T23:34:18.188Z,27.23
2023-03-29T23:34:27.944Z,20.02
2023-03-29T23:36:45.371Z,26.42
2023-03-29T23:36:54.725Z,21.77
2023-03-29T23:39:12.644Z,25.58
2023-03-29T23:39:22.154Z,20.60
2023-03-29T23:41:42.673Z,23.55
2023-03-29T23:41:49.134Z,19.20
2023-03-29T23:44:10.443Z,25.55
2023-03-29T23:44:15.788Z,19.02
2023-03-29T23:46:37.744Z,23.55
2023-03-29T23:46:42.447Z,19.30
2023-03-29T23:49:05.020Z,28.25
2023-03-29T23:49:09.990Z,16.50
2023-03-29T23:51:34.899Z,24.98
2023-03-29T23:51:36.783Z,16.58
2023-03-29T23:54:02.263Z,23.60
2023-03-29T23:54:03.694Z,17.17
2023-03-29T23:56:29.792Z,23.38
2023-03-29T23:56:30.398Z,16.73
2023-03-29T23:58:57.223Z,15.45
2023-03-29T23:58:57.255Z,23.35
